sensor_id;sensor_type;location;lat;lon;timestamp;P1;durP1;ratioP1;P2;durP2;ratioP2
66587;SDS011;53446;50.076;8.198;2023-08-06T00:00:38;181.30;;;97.70;;
66587;SDS011;53446;50.076;8.198;2023-08-06T00:02:39;181.97;;;98.30;;
66587;SDS011;53446;50.076;8.198;2023-08-06T00:04:39;179.23;;;97.13;;
66587;SDS011;53446;50.076;8.198;2023-08-06T00:06:39;184.20;;;99.27;;
66587;SDS011;53446;50.076;8.198;2023-08-06T00:08:40;183.40;;;97.93;;
66587;SDS011;53446;50.076;8.198;2023-08-06T00:10:40;180.13;;;98.63;;
66587;SDS011;53446;50.076;8.198;2023-08-06T00:12:41;180.98;;;97.22;;
66587;SDS011;53446;50.076;8.198;2023-08-06T00:14:41;184.37;;;98.23;;
66587;SDS011;53446;50.076;8.198;2023-08-06T00:16:43;186.48;;;99.50;;
66587;SDS011;53446;50.076;8.198;2023-08-06T00:18:44;180.13;;;99.15;;
66587;SDS011;53446;50.076;8.198;2023-08-06T00:20:44;180.97;;;98.20;;
66587;SDS011;53446;50.076;8.198;2023-08-06T00:22:44;182.03;;;97.93;;
66587;SDS011;53446;50.076;8.198;2023-08-06T00:24:44;184.23;;;98.63;;
66587;SDS011;53446;50.076;8.198;2023-08-06T00:26:45;185.77;;;98.93;;
66587;SDS011;53446;50.076;8.198;2023-08-06T00:28:45;180.27;;;98.77;;
66587;SDS011;53446;50.076;8.198;2023-08-06T00:30:45;183.63;;;99.13;;
66587;SDS011;53446;50.076;8.198;2023-08-06T00:32:46;186.63;;;101.10;;
66587;SDS011;53446;50.076;8.198;2023-08-06T00:34:46;183.38;;;100.65;;
66587;SDS011;53446;50.076;8.198;2023-08-06T00:36:46;186.93;;;101.30;;
66587;SDS011;53446;50.076;8.198;2023-08-06T00:38:47;184.73;;;98.67;;
66587;SDS011;53446;50.076;8.198;2023-08-06T00:40:47;186.53;;;100.07;;
66587;SDS011;53446;50.076;8.198;2023-08-06T00:42:47;186.47;;;99.00;;
66587;SDS011;53446;50.076;8.198;2023-08-06T00:44:48;185.23;;;99.03;;
66587;SDS011;53446;50.076;8.198;2023-08-06T00:46:48;183.13;;;97.45;;
66587;SDS011;53446;50.076;8.198;2023-08-06T00:48:49;180.53;;;98.30;;
66587;SDS011;53446;50.076;8.198;2023-08-06T00:50:50;177.85;;;97.35;;
66587;SDS011;53446;50.076;8.198;2023-08-06T00:52:51;180.90;;;97.03;;
66587;SDS011;53446;50.076;8.198;2023-08-06T00:54:51;181.00;;;99.33;;
66587;SDS011;53446;50.076;8.198;2023-08-06T00:56:51;184.40;;;98.63;;
66587;SDS011;53446;50.076;8.198;2023-08-06T00:58:52;183.02;;;98.80;;
66587;SDS011;53446;50.076;8.198;2023-08-06T01:00:53;182.17;;;98.30;;
66587;SDS011;53446;50.076;8.198;2023-08-06T01:02:53;180.90;;;98.15;;
66587;SDS011;53446;50.076;8.198;2023-08-06T01:04:54;183.07;;;98.23;;
66587;SDS011;53446;50.076;8.198;2023-08-06T01:09:26;183.05;;;99.50;;
66587;SDS011;53446;50.076;8.198;2023-08-06T01:11:38;190.93;;;101.00;;
66587;SDS011;53446;50.076;8.198;2023-08-06T01:13:48;184.90;;;99.20;;
66587;SDS011;53446;50.076;8.198;2023-08-06T01:15:54;183.45;;;98.47;;
66587;SDS011;53446;50.076;8.198;2023-08-06T01:17:59;180.20;;;98.63;;
66587;SDS011;53446;50.076;8.198;2023-08-06T01:19:59;184.90;;;99.30;;
66587;SDS011;53446;50.076;8.198;2023-08-06T01:21:59;183.20;;;99.00;;
66587;SDS011;53446;50.076;8.198;2023-08-06T01:24:00;182.77;;;98.47;;
66587;SDS011;53446;50.076;8.198;2023-08-06T01:26:03;181.32;;;97.50;;
66587;SDS011;53446;50.076;8.198;2023-08-06T01:28:09;187.48;;;98.45;;
66587;SDS011;53446;50.076;8.198;2023-08-06T01:30:15;181.63;;;98.05;;
66587;SDS011;53446;50.076;8.198;2023-08-06T01:32:17;184.25;;;98.57;;
66587;SDS011;53446;50.076;8.198;2023-08-06T01:34:21;185.07;;;98.35;;
66587;SDS011;53446;50.076;8.198;2023-08-06T01:36:22;183.77;;;98.30;;
66587;SDS011;53446;50.076;8.198;2023-08-06T01:38:23;186.20;;;99.53;;
66587;SDS011;53446;50.076;8.198;2023-08-06T01:40:24;183.77;;;98.97;;
66587;SDS011;53446;50.076;8.198;2023-08-06T01:42:26;184.15;;;98.43;;
66587;SDS011;53446;50.076;8.198;2023-08-06T01:44:26;186.13;;;99.57;;
66587;SDS011;53446;50.076;8.198;2023-08-06T01:46:26;188.50;;;99.43;;
66587;SDS011;53446;50.076;8.198;2023-08-06T01:48:27;193.83;;;99.93;;
66587;SDS011;53446;50.076;8.198;2023-08-06T01:50:27;192.50;;;102.03;;
66587;SDS011;53446;50.076;8.198;2023-08-06T01:52:27;188.30;;;99.13;;
66587;SDS011;53446;50.076;8.198;2023-08-06T01:54:28;191.23;;;100.70;;
66587;SDS011;53446;50.076;8.198;2023-08-06T01:56:28;190.17;;;100.00;;
66587;SDS011;53446;50.076;8.198;2023-08-06T01:58:29;195.63;;;102.70;;
66587;SDS011;53446;50.076;8.198;2023-08-06T02:00:29;190.73;;;100.90;;
66587;SDS011;53446;50.076;8.198;2023-08-06T02:02:29;193.53;;;101.00;;
66587;SDS011;53446;50.076;8.198;2023-08-06T02:04:29;192.67;;;101.53;;
66587;SDS011;53446;50.076;8.198;2023-08-06T02:06:30;197.93;;;101.43;;
66587;SDS011;53446;50.076;8.198;2023-08-06T02:08:30;192.73;;;101.33;;
66587;SDS011;53446;50.076;8.198;2023-08-06T02:10:30;193.10;;;100.37;;
66587;SDS011;53446;50.076;8.198;2023-08-06T02:12:31;194.40;;;101.27;;
66587;SDS011;53446;50.076;8.198;2023-08-06T02:14:31;189.83;;;101.43;;
66587;SDS011;53446;50.076;8.198;2023-08-06T02:16:31;194.77;;;101.90;;
66587;SDS011;53446;50.076;8.198;2023-08-06T02:18:32;192.60;;;100.87;;
66587;SDS011;53446;50.076;8.198;2023-08-06T02:20:32;191.80;;;100.53;;
66587;SDS011;53446;50.076;8.198;2023-08-06T02:22:32;190.02;;;100.25;;
66587;SDS011;53446;50.076;8.198;2023-08-06T02:24:33;189.07;;;100.93;;
66587;SDS011;53446;50.076;8.198;2023-08-06T02:26:33;194.30;;;102.27;;
66587;SDS011;53446;50.076;8.198;2023-08-06T02:28:34;189.97;;;100.80;;
66587;SDS011;53446;50.076;8.198;2023-08-06T02:30:34;190.23;;;101.35;;
66587;SDS011;53446;50.076;8.198;2023-08-06T02:32:34;188.60;;;101.85;;
66587;SDS011;53446;50.076;8.198;2023-08-06T02:34:35;196.53;;;101.83;;
66587;SDS011;53446;50.076;8.198;2023-08-06T02:36:36;191.07;;;101.63;;
66587;SDS011;53446;50.076;8.198;2023-08-06T02:38:36;190.18;;;101.60;;
66587;SDS011;53446;50.076;8.198;2023-08-06T02:40:36;189.07;;;100.97;;
66587;SDS011;53446;50.076;8.198;2023-08-06T02:42:37;189.87;;;101.43;;
66587;SDS011;53446;50.076;8.198;2023-08-06T02:44:37;189.23;;;100.23;;
66587;SDS011;53446;50.076;8.198;2023-08-06T02:46:37;192.60;;;101.07;;
66587;SDS011;53446;50.076;8.198;2023-08-06T02:48:37;189.80;;;100.70;;
66587;SDS011;53446;50.076;8.198;2023-08-06T02:50:38;188.23;;;99.97;;
66587;SDS011;53446;50.076;8.198;2023-08-06T02:52:39;194.18;;;100.90;;
66587;SDS011;53446;50.076;8.198;2023-08-06T02:54:40;189.60;;;99.43;;
66587;SDS011;53446;50.076;8.198;2023-08-06T02:56:42;193.70;;;100.73;;
66587;SDS011;53446;50.076;8.198;2023-08-06T02:58:44;192.43;;;101.45;;
66587;SDS011;53446;50.076;8.198;2023-08-06T03:00:45;189.33;;;99.43;;
66587;SDS011;53446;50.076;8.198;2023-08-06T03:02:45;186.73;;;101.90;;
66587;SDS011;53446;50.076;8.198;2023-08-06T03:04:45;190.45;;;100.43;;
66587;SDS011;53446;50.076;8.198;2023-08-06T03:06:45;191.88;;;100.45;;
66587;SDS011;53446;50.076;8.198;2023-08-06T03:08:46;190.27;;;100.20;;
66587;SDS011;53446;50.076;8.198;2023-08-06T03:10:46;191.37;;;100.50;;
66587;SDS011;53446;50.076;8.198;2023-08-06T03:12:46;192.70;;;101.37;;
66587;SDS011;53446;50.076;8.198;2023-08-06T03:14:47;193.30;;;102.07;;
66587;SDS011;53446;50.076;8.198;2023-08-06T03:16:47;194.53;;;103.93;;
66587;SDS011;53446;50.076;8.198;2023-08-06T03:18:47;195.00;;;101.83;;
66587;SDS011;53446;50.076;8.198;2023-08-06T03:20:48;196.87;;;101.90;;
66587;SDS011;53446;50.076;8.198;2023-08-06T03:22:49;193.52;;;102.43;;
66587;SDS011;53446;50.076;8.198;2023-08-06T03:24:50;192.45;;;103.20;;
66587;SDS011;53446;50.076;8.198;2023-08-06T03:26:51;193.33;;;102.40;;
66587;SDS011;53446;50.076;8.198;2023-08-06T03:28:51;193.93;;;104.15;;
66587;SDS011;53446;50.076;8.198;2023-08-06T03:33:01;195.77;;;104.67;;
66587;SDS011;53446;50.076;8.198;2023-08-06T03:35:01;194.77;;;105.25;;
66587;SDS011;53446;50.076;8.198;2023-08-06T03:37:01;198.73;;;106.13;;
66587;SDS011;53446;50.076;8.198;2023-08-06T03:39:02;197.10;;;106.00;;
66587;SDS011;53446;50.076;8.198;2023-08-06T03:41:02;196.60;;;104.80;;
66587;SDS011;53446;50.076;8.198;2023-08-06T03:43:03;201.50;;;103.67;;
66587;SDS011;53446;50.076;8.198;2023-08-06T03:45:03;201.97;;;104.90;;
66587;SDS011;53446;50.076;8.198;2023-08-06T03:47:04;198.50;;;104.38;;
66587;SDS011;53446;50.076;8.198;2023-08-06T03:49:04;204.23;;;105.80;;
66587;SDS011;53446;50.076;8.198;2023-08-06T03:51:05;201.57;;;104.87;;
66587;SDS011;53446;50.076;8.198;2023-08-06T03:53:05;203.10;;;105.27;;
66587;SDS011;53446;50.076;8.198;2023-08-06T03:55:05;204.88;;;104.82;;
66587;SDS011;53446;50.076;8.198;2023-08-06T03:57:06;212.02;;;105.85;;
66587;SDS011;53446;50.076;8.198;2023-08-06T03:59:06;212.40;;;107.23;;
66587;SDS011;53446;50.076;8.198;2023-08-06T04:01:06;216.33;;;107.63;;
66587;SDS011;53446;50.076;8.198;2023-08-06T04:03:07;215.17;;;107.70;;
66587;SDS011;53446;50.076;8.198;2023-08-06T04:05:07;219.70;;;108.50;;
66587;SDS011;53446;50.076;8.198;2023-08-06T04:07:07;220.93;;;108.25;;
66587;SDS011;53446;50.076;8.198;2023-08-06T04:09:08;223.73;;;108.67;;
66587;SDS011;53446;50.076;8.198;2023-08-06T04:11:08;219.73;;;108.67;;
66587;SDS011;53446;50.076;8.198;2023-08-06T04:13:09;221.67;;;109.07;;
66587;SDS011;53446;50.076;8.198;2023-08-06T04:15:09;225.98;;;109.78;;
66587;SDS011;53446;50.076;8.198;2023-08-06T04:17:09;226.13;;;110.55;;
66587;SDS011;53446;50.076;8.198;2023-08-06T04:19:10;225.33;;;109.73;;
66587;SDS011;53446;50.076;8.198;2023-08-06T04:21:10;241.50;;;114.20;;
66587;SDS011;53446;50.076;8.198;2023-08-06T04:23:11;239.03;;;114.57;;
66587;SDS011;53446;50.076;8.198;2023-08-06T04:25:11;240.90;;;115.40;;
66587;SDS011;53446;50.076;8.198;2023-08-06T04:27:12;241.90;;;116.57;;
66587;SDS011;53446;50.076;8.198;2023-08-06T04:29:13;244.27;;;117.63;;
66587;SDS011;53446;50.076;8.198;2023-08-06T04:31:13;246.23;;;117.63;;
66587;SDS011;53446;50.076;8.198;2023-08-06T04:33:14;246.30;;;119.20;;
66587;SDS011;53446;50.076;8.198;2023-08-06T04:35:14;248.80;;;118.50;;
66587;SDS011;53446;50.076;8.198;2023-08-06T04:37:14;247.30;;;117.90;;
66587;SDS011;53446;50.076;8.198;2023-08-06T04:39:14;242.53;;;116.63;;
66587;SDS011;53446;50.076;8.198;2023-08-06T04:41:15;241.93;;;117.20;;
66587;SDS011;53446;50.076;8.198;2023-08-06T04:43:15;238.17;;;117.63;;
66587;SDS011;53446;50.076;8.198;2023-08-06T04:45:15;241.48;;;117.50;;
66587;SDS011;53446;50.076;8.198;2023-08-06T04:47:16;246.48;;;117.03;;
66587;SDS011;53446;50.076;8.198;2023-08-06T04:49:17;246.03;;;118.40;;
66587;SDS011;53446;50.076;8.198;2023-08-06T04:51:17;242.73;;;116.95;;
66587;SDS011;53446;50.076;8.198;2023-08-06T04:53:18;241.73;;;116.73;;
66587;SDS011;53446;50.076;8.198;2023-08-06T04:55:18;239.87;;;118.33;;
66587;SDS011;53446;50.076;8.198;2023-08-06T04:57:18;245.20;;;120.83;;
66587;SDS011;53446;50.076;8.198;2023-08-06T04:59:19;241.70;;;119.70;;
66587;SDS011;53446;50.076;8.198;2023-08-06T05:01:20;242.50;;;120.20;;
66587;SDS011;53446;50.076;8.198;2023-08-06T05:03:20;240.53;;;120.03;;
66587;SDS011;53446;50.076;8.198;2023-08-06T05:05:21;241.68;;;119.90;;
66587;SDS011;53446;50.076;8.198;2023-08-06T05:07:21;238.93;;;119.73;;
66587;SDS011;53446;50.076;8.198;2023-08-06T05:09:21;238.50;;;119.33;;
66587;SDS011;53446;50.076;8.198;2023-08-06T05:11:22;240.43;;;119.87;;
66587;SDS011;53446;50.076;8.198;2023-08-06T05:13:24;239.07;;;119.03;;
66587;SDS011;53446;50.076;8.198;2023-08-06T05:15:25;238.45;;;118.95;;
66587;SDS011;53446;50.076;8.198;2023-08-06T05:17:25;240.47;;;119.67;;
66587;SDS011;53446;50.076;8.198;2023-08-06T05:19:25;237.27;;;118.00;;
66587;SDS011;53446;50.076;8.198;2023-08-06T05:21:26;238.07;;;116.20;;
66587;SDS011;53446;50.076;8.198;2023-08-06T05:23:26;235.60;;;116.27;;
66587;SDS011;53446;50.076;8.198;2023-08-06T05:25:26;235.97;;;117.27;;
66587;SDS011;53446;50.076;8.198;2023-08-06T05:27:27;238.27;;;116.23;;
66587;SDS011;53446;50.076;8.198;2023-08-06T05:29:27;234.68;;;118.13;;
66587;SDS011;53446;50.076;8.198;2023-08-06T05:31:27;235.02;;;119.63;;
66587;SDS011;53446;50.076;8.198;2023-08-06T05:33:28;236.27;;;119.27;;
66587;SDS011;53446;50.076;8.198;2023-08-06T05:35:29;234.10;;;117.82;;
66587;SDS011;53446;50.076;8.198;2023-08-06T05:37:29;235.48;;;118.90;;
66587;SDS011;53446;50.076;8.198;2023-08-06T05:39:29;239.80;;;120.13;;
66587;SDS011;53446;50.076;8.198;2023-08-06T05:41:30;236.93;;;119.63;;
66587;SDS011;53446;50.076;8.198;2023-08-06T05:43:30;235.40;;;119.13;;
66587;SDS011;53446;50.076;8.198;2023-08-06T05:45:30;239.17;;;120.33;;
66587;SDS011;53446;50.076;8.198;2023-08-06T05:47:31;236.33;;;119.60;;
66587;SDS011;53446;50.076;8.198;2023-08-06T05:49:31;236.30;;;119.90;;
66587;SDS011;53446;50.076;8.198;2023-08-06T05:51:31;241.27;;;119.93;;
66587;SDS011;53446;50.076;8.198;2023-08-06T05:53:31;236.65;;;118.70;;
66587;SDS011;53446;50.076;8.198;2023-08-06T05:55:32;238.10;;;120.05;;
66587;SDS011;53446;50.076;8.198;2023-08-06T05:57:33;237.53;;;119.27;;
66587;SDS011;53446;50.076;8.198;2023-08-06T05:59:33;235.27;;;118.73;;
66587;SDS011;53446;50.076;8.198;2023-08-06T06:01:33;240.80;;;121.40;;
66587;SDS011;53446;50.076;8.198;2023-08-06T06:03:33;234.27;;;118.60;;
66587;SDS011;53446;50.076;8.198;2023-08-06T06:05:34;239.05;;;119.85;;
66587;SDS011;53446;50.076;8.198;2023-08-06T06:07:34;237.00;;;119.10;;
66587;SDS011;53446;50.076;8.198;2023-08-06T06:09:34;238.00;;;119.93;;
66587;SDS011;53446;50.076;8.198;2023-08-06T06:11:35;240.97;;;121.10;;
66587;SDS011;53446;50.076;8.198;2023-08-06T06:13:35;240.00;;;119.33;;
66587;SDS011;53446;50.076;8.198;2023-08-06T06:15:35;242.17;;;121.30;;
66587;SDS011;53446;50.076;8.198;2023-08-06T06:17:36;246.30;;;122.00;;
66587;SDS011;53446;50.076;8.198;2023-08-06T06:19:36;246.67;;;121.77;;
66587;SDS011;53446;50.076;8.198;2023-08-06T06:21:36;253.15;;;124.78;;
66587;SDS011;53446;50.076;8.198;2023-08-06T06:23:37;250.15;;;124.05;;
66587;SDS011;53446;50.076;8.198;2023-08-06T06:25:41;249.77;;;123.57;;
66587;SDS011;53446;50.076;8.198;2023-08-06T06:27:43;249.30;;;122.57;;
66587;SDS011;53446;50.076;8.198;2023-08-06T06:29:43;247.87;;;121.60;;
66587;SDS011;53446;50.076;8.198;2023-08-06T06:31:44;251.67;;;123.00;;
66587;SDS011;53446;50.076;8.198;2023-08-06T06:33:44;247.00;;;119.57;;
66587;SDS011;53446;50.076;8.198;2023-08-06T06:35:44;248.95;;;122.10;;
66587;SDS011;53446;50.076;8.198;2023-08-06T06:37:45;246.13;;;117.70;;
66587;SDS011;53446;50.076;8.198;2023-08-06T06:39:45;246.53;;;121.30;;
66587;SDS011;53446;50.076;8.198;2023-08-06T06:41:45;250.80;;;122.97;;
66587;SDS011;53446;50.076;8.198;2023-08-06T06:43:45;248.97;;;121.77;;
66587;SDS011;53446;50.076;8.198;2023-08-06T06:45:46;250.17;;;122.80;;
66587;SDS011;53446;50.076;8.198;2023-08-06T06:47:46;249.07;;;122.27;;
66587;SDS011;53446;50.076;8.198;2023-08-06T06:49:46;248.27;;;122.23;;
66587;SDS011;53446;50.076;8.198;2023-08-06T06:51:47;258.60;;;131.73;;
66587;SDS011;53446;50.076;8.198;2023-08-06T06:53:47;248.50;;;122.40;;
66587;SDS011;53446;50.076;8.198;2023-08-06T06:55:47;251.03;;;122.57;;
66587;SDS011;53446;50.076;8.198;2023-08-06T06:57:49;249.00;;;122.60;;
66587;SDS011;53446;50.076;8.198;2023-08-06T06:59:49;248.73;;;122.87;;
66587;SDS011;53446;50.076;8.198;2023-08-06T07:01:49;249.27;;;121.67;;
66587;SDS011;53446;50.076;8.198;2023-08-06T07:03:50;248.43;;;123.40;;
66587;SDS011;53446;50.076;8.198;2023-08-06T07:05:50;247.97;;;122.93;;
66587;SDS011;53446;50.076;8.198;2023-08-06T07:07:51;251.90;;;123.83;;
66587;SDS011;53446;50.076;8.198;2023-08-06T07:09:52;244.30;;;122.75;;
66587;SDS011;53446;50.076;8.198;2023-08-06T07:11:52;253.83;;;118.93;;
66587;SDS011;53446;50.076;8.198;2023-08-06T07:13:56;256.07;;;118.57;;
66587;SDS011;53446;50.076;8.198;2023-08-06T07:15:58;260.88;;;117.50;;
66587;SDS011;53446;50.076;8.198;2023-08-06T07:17:58;259.43;;;118.17;;
66587;SDS011;53446;50.076;8.198;2023-08-06T07:19:58;256.13;;;119.13;;
66587;SDS011;53446;50.076;8.198;2023-08-06T07:21:59;259.98;;;118.00;;
66587;SDS011;53446;50.076;8.198;2023-08-06T07:23:59;257.37;;;117.93;;
66587;SDS011;53446;50.076;8.198;2023-08-06T07:25:59;260.77;;;117.67;;
66587;SDS011;53446;50.076;8.198;2023-08-06T07:28:00;254.87;;;118.30;;
66587;SDS011;53446;50.076;8.198;2023-08-06T07:30:02;257.77;;;118.03;;
66587;SDS011;53446;50.076;8.198;2023-08-06T07:32:03;257.20;;;118.38;;
66587;SDS011;53446;50.076;8.198;2023-08-06T07:34:03;260.70;;;118.03;;
66587;SDS011;53446;50.076;8.198;2023-08-06T07:36:13;254.80;;;117.67;;
66587;SDS011;53446;50.076;8.198;2023-08-06T07:38:14;249.45;;;118.10;;
66587;SDS011;53446;50.076;8.198;2023-08-06T07:40:14;255.67;;;116.83;;
66587;SDS011;53446;50.076;8.198;2023-08-06T07:42:15;244.63;;;118.50;;
66587;SDS011;53446;50.076;8.198;2023-08-06T07:44:15;245.33;;;117.13;;
66587;SDS011;53446;50.076;8.198;2023-08-06T07:46:15;252.10;;;115.90;;
66587;SDS011;53446;50.076;8.198;2023-08-06T07:48:16;253.82;;;115.78;;
66587;SDS011;53446;50.076;8.198;2023-08-06T07:50:16;241.77;;;114.40;;
66587;SDS011;53446;50.076;8.198;2023-08-06T07:52:16;245.73;;;114.30;;
66587;SDS011;53446;50.076;8.198;2023-08-06T07:54:17;246.23;;;114.30;;
66587;SDS011;53446;50.076;8.198;2023-08-06T07:56:17;241.00;;;113.47;;
66587;SDS011;53446;50.076;8.198;2023-08-06T07:58:18;233.77;;;115.17;;
66587;SDS011;53446;50.076;8.198;2023-08-06T08:00:19;237.98;;;112.82;;
66587;SDS011;53446;50.076;8.198;2023-08-06T08:02:19;243.77;;;112.53;;
66587;SDS011;53446;50.076;8.198;2023-08-06T08:04:19;246.02;;;113.75;;
66587;SDS011;53446;50.076;8.198;2023-08-06T08:06:21;238.27;;;113.10;;
66587;SDS011;53446;50.076;8.198;2023-08-06T08:08:23;246.38;;;113.53;;
66587;SDS011;53446;50.076;8.198;2023-08-06T08:10:23;246.63;;;113.53;;
66587;SDS011;53446;50.076;8.198;2023-08-06T08:12:24;245.73;;;114.30;;
66587;SDS011;53446;50.076;8.198;2023-08-06T08:14:24;246.97;;;115.33;;
66587;SDS011;53446;50.076;8.198;2023-08-06T08:16:24;244.33;;;113.97;;
66587;SDS011;53446;50.076;8.198;2023-08-06T08:18:25;242.70;;;114.60;;
66587;SDS011;53446;50.076;8.198;2023-08-06T08:20:26;243.17;;;114.90;;
66587;SDS011;53446;50.076;8.198;2023-08-06T08:22:31;235.90;;;115.90;;
66587;SDS011;53446;50.076;8.198;2023-08-06T08:24:31;234.03;;;115.10;;
66587;SDS011;53446;50.076;8.198;2023-08-06T08:26:32;239.37;;;116.30;;
66587;SDS011;53446;50.076;8.198;2023-08-06T08:28:32;236.07;;;112.97;;
66587;SDS011;53446;50.076;8.198;2023-08-06T08:30:32;238.27;;;112.47;;
66587;SDS011;53446;50.076;8.198;2023-08-06T08:32:32;239.40;;;112.33;;
66587;SDS011;53446;50.076;8.198;2023-08-06T08:34:33;236.10;;;112.47;;
66587;SDS011;53446;50.076;8.198;2023-08-06T08:36:33;241.23;;;113.63;;
66587;SDS011;53446;50.076;8.198;2023-08-06T08:38:33;239.07;;;112.30;;
66587;SDS011;53446;50.076;8.198;2023-08-06T08:40:34;237.70;;;111.97;;
66587;SDS011;53446;50.076;8.198;2023-08-06T08:42:38;233.23;;;111.85;;
66587;SDS011;53446;50.076;8.198;2023-08-06T08:44:38;230.83;;;110.00;;
66587;SDS011;53446;50.076;8.198;2023-08-06T08:46:40;231.65;;;111.25;;
66587;SDS011;53446;50.076;8.198;2023-08-06T08:48:41;218.57;;;107.45;;
66587;SDS011;53446;50.076;8.198;2023-08-06T08:50:42;224.17;;;108.33;;
66587;SDS011;53446;50.076;8.198;2023-08-06T08:52:44;215.40;;;106.28;;
66587;SDS011;53446;50.076;8.198;2023-08-06T08:54:45;213.60;;;105.82;;
66587;SDS011;53446;50.076;8.198;2023-08-06T08:56:46;213.27;;;105.70;;
66587;SDS011;53446;50.076;8.198;2023-08-06T08:58:46;202.57;;;102.60;;
66587;SDS011;53446;50.076;8.198;2023-08-06T09:00:46;201.90;;;102.20;;
66587;SDS011;53446;50.076;8.198;2023-08-06T09:02:48;200.80;;;101.93;;
66587;SDS011;53446;50.076;8.198;2023-08-06T09:04:49;197.65;;;101.18;;
66587;SDS011;53446;50.076;8.198;2023-08-06T09:06:50;198.60;;;101.85;;
66587;SDS011;53446;50.076;8.198;2023-08-06T09:08:53;195.77;;;101.43;;
66587;SDS011;53446;50.076;8.198;2023-08-06T09:10:57;193.32;;;100.35;;
66587;SDS011;53446;50.076;8.198;2023-08-06T09:12:58;194.85;;;101.38;;
66587;SDS011;53446;50.076;8.198;2023-08-06T09:15:00;189.60;;;99.30;;
66587;SDS011;53446;50.076;8.198;2023-08-06T09:17:03;187.13;;;99.43;;
66587;SDS011;53446;50.076;8.198;2023-08-06T09:19:08;180.40;;;96.93;;
66587;SDS011;53446;50.076;8.198;2023-08-06T09:21:15;183.70;;;98.30;;
66587;SDS011;53446;50.076;8.198;2023-08-06T09:23:18;175.18;;;95.78;;
66587;SDS011;53446;50.076;8.198;2023-08-06T09:25:24;166.15;;;93.20;;
66587;SDS011;53446;50.076;8.198;2023-08-06T09:27:25;166.13;;;92.07;;
66587;SDS011;53446;50.076;8.198;2023-08-06T09:29:26;163.17;;;92.30;;
66587;SDS011;53446;50.076;8.198;2023-08-06T09:31:49;164.07;;;92.20;;
66587;SDS011;53446;50.076;8.198;2023-08-06T09:33:52;165.73;;;92.50;;
66587;SDS011;53446;50.076;8.198;2023-08-06T09:35:52;167.02;;;93.07;;
66587;SDS011;53446;50.076;8.198;2023-08-06T09:37:55;171.80;;;93.80;;
66587;SDS011;53446;50.076;8.198;2023-08-06T09:39:55;179.77;;;96.68;;
66587;SDS011;53446;50.076;8.198;2023-08-06T09:41:56;186.57;;;98.50;;
66587;SDS011;53446;50.076;8.198;2023-08-06T09:43:57;193.15;;;99.35;;
66587;SDS011;53446;50.076;8.198;2023-08-06T09:45:58;202.60;;;102.15;;
66587;SDS011;53446;50.076;8.198;2023-08-06T09:47:58;203.70;;;102.87;;
66587;SDS011;53446;50.076;8.198;2023-08-06T09:49:59;207.80;;;103.18;;
66587;SDS011;53446;50.076;8.198;2023-08-06T09:52:00;216.43;;;105.77;;
66587;SDS011;53446;50.076;8.198;2023-08-06T09:54:00;221.90;;;107.93;;
66587;SDS011;53446;50.076;8.198;2023-08-06T09:56:01;220.25;;;107.93;;
66587;SDS011;53446;50.076;8.198;2023-08-06T09:58:01;225.70;;;108.83;;
66587;SDS011;53446;50.076;8.198;2023-08-06T10:00:02;227.77;;;109.50;;
66587;SDS011;53446;50.076;8.198;2023-08-06T10:02:03;227.30;;;109.65;;
66587;SDS011;53446;50.076;8.198;2023-08-06T10:04:10;231.80;;;110.10;;
66587;SDS011;53446;50.076;8.198;2023-08-06T10:06:12;226.52;;;108.93;;
66587;SDS011;53446;50.076;8.198;2023-08-06T10:08:12;224.20;;;108.30;;
66587;SDS011;53446;50.076;8.198;2023-08-06T10:10:13;220.77;;;107.70;;
66587;SDS011;53446;50.076;8.198;2023-08-06T10:12:13;219.47;;;107.17;;
66587;SDS011;53446;50.076;8.198;2023-08-06T10:14:16;212.45;;;105.35;;
66587;SDS011;53446;50.076;8.198;2023-08-06T10:16:20;211.98;;;104.97;;
66587;SDS011;53446;50.076;8.198;2023-08-06T10:18:21;213.00;;;105.47;;
66587;SDS011;53446;50.076;8.198;2023-08-06T10:20:23;207.10;;;104.00;;
66587;SDS011;53446;50.076;8.198;2023-08-06T10:22:23;209.43;;;104.20;;
66587;SDS011;53446;50.076;8.198;2023-08-06T10:24:24;213.95;;;105.05;;
66587;SDS011;53446;50.076;8.198;2023-08-06T10:26:25;212.90;;;105.03;;
66587;SDS011;53446;50.076;8.198;2023-08-06T10:28:38;211.23;;;105.53;;
66587;SDS011;53446;50.076;8.198;2023-08-06T10:30:42;206.70;;;104.75;;
66587;SDS011;53446;50.076;8.198;2023-08-06T10:32:46;207.35;;;104.68;;
66587;SDS011;53446;50.076;8.198;2023-08-06T10:34:58;202.60;;;102.90;;
66587;SDS011;53446;50.076;8.198;2023-08-06T10:36:58;200.35;;;101.30;;
66587;SDS011;53446;50.076;8.198;2023-08-06T10:38:58;200.43;;;102.17;;
66587;SDS011;53446;50.076;8.198;2023-08-06T10:43:00;201.67;;;103.20;;
66587;SDS011;53446;50.076;8.198;2023-08-06T10:47:30;210.02;;;104.97;;
66587;SDS011;53446;50.076;8.198;2023-08-06T10:49:39;213.30;;;106.20;;
66587;SDS011;53446;50.076;8.198;2023-08-06T10:51:39;216.87;;;107.50;;
66587;SDS011;53446;50.076;8.198;2023-08-06T10:53:46;211.02;;;105.50;;
66587;SDS011;53446;50.076;8.198;2023-08-06T10:55:48;206.55;;;103.47;;
66587;SDS011;53446;50.076;8.198;2023-08-06T10:57:48;205.17;;;103.73;;
66587;SDS011;53446;50.076;8.198;2023-08-06T10:59:48;203.55;;;102.95;;
66587;SDS011;53446;50.076;8.198;2023-08-06T11:01:48;202.50;;;103.28;;
66587;SDS011;53446;50.076;8.198;2023-08-06T11:03:49;200.33;;;102.13;;
66587;SDS011;53446;50.076;8.198;2023-08-06T11:05:50;202.93;;;102.63;;
66587;SDS011;53446;50.076;8.198;2023-08-06T11:07:51;197.47;;;101.27;;
66587;SDS011;53446;50.076;8.198;2023-08-06T11:09:52;200.80;;;102.60;;
66587;SDS011;53446;50.076;8.198;2023-08-06T11:11:53;200.57;;;102.22;;
66587;SDS011;53446;50.076;8.198;2023-08-06T11:13:54;205.30;;;104.37;;
66587;SDS011;53446;50.076;8.198;2023-08-06T11:15:54;210.93;;;105.80;;
66587;SDS011;53446;50.076;8.198;2023-08-06T11:17:55;208.95;;;106.05;;
66587;SDS011;53446;50.076;8.198;2023-08-06T11:19:56;214.47;;;108.27;;
66587;SDS011;53446;50.076;8.198;2023-08-06T11:22:02;223.15;;;109.82;;
66587;SDS011;53446;50.076;8.198;2023-08-06T11:24:03;221.10;;;110.93;;
66587;SDS011;53446;50.076;8.198;2023-08-06T11:26:03;225.30;;;112.40;;
66587;SDS011;53446;50.076;8.198;2023-08-06T11:28:03;229.10;;;110.97;;
66587;SDS011;53446;50.076;8.198;2023-08-06T11:30:04;229.57;;;111.57;;
66587;SDS011;53446;50.076;8.198;2023-08-06T11:32:05;227.63;;;115.00;;
66587;SDS011;53446;50.076;8.198;2023-08-06T11:34:05;228.02;;;111.32;;
66587;SDS011;53446;50.076;8.198;2023-08-06T11:36:06;228.97;;;111.57;;
66587;SDS011;53446;50.076;8.198;2023-08-06T11:38:07;227.85;;;114.30;;